createdAt,value
2023-04-16T00:01:06.999Z,100113.91
2023-04-16T00:04:10.444Z,100108.94
2023-04-16T00:07:13.292Z,100110.72
2023-04-16T00:10:16.460Z,100114.34
2023-04-16T00:13:19.226Z,100110.38
2023-04-16T00:16:22.100Z,100107.16
2023-04-16T00:19:24.729Z,100112.63
2023-04-16T00:22:27.778Z,100114.56
2023-04-16T00:25:30.415Z,100118.31
2023-04-16T00:28:33.355Z,100116.84
2023-04-16T00:31:36.817Z,100116.19
2023-04-16T00:34:39.597Z,100117.00
2023-04-16T00:37:42.312Z,100118.81
2023-04-16T00:40:45.242Z,100120.38
2023-04-16T00:43:47.955Z,100121.28
2023-04-16T00:46:51.150Z,100126.53
2023-04-16T00:49:54.333Z,100119.72
2023-04-16T00:52:57.399Z,100121.41
2023-04-16T00:56:02.400Z,100128.25
2023-04-16T00:59:06.386Z,100118.25
2023-04-16T01:02:09.091Z,100115.88
2023-04-16T01:05:12.027Z,100112.63
2023-04-16T01:08:19.258Z,100116.06
2023-04-16T01:11:24.327Z,100117.97
2023-04-16T01:14:26.951Z,100117.75
2023-04-16T01:17:29.919Z,100121.22
2023-04-16T01:20:35.952Z,100123.78
2023-04-16T01:23:39.151Z,100129.88
2023-04-16T01:26:41.935Z,100131.47
2023-04-16T01:29:44.764Z,100128.94
2023-04-16T01:32:48.008Z,100126.31
2023-04-16T01:35:51.178Z,100129.72
2023-04-16T01:38:53.707Z,100127.78
2023-04-16T01:41:57.186Z,100122.59
2023-04-16T01:44:59.661Z,100130.25
2023-04-16T01:48:03.905Z,100126.75
2023-04-16T01:51:06.911Z,100128.59
2023-04-16T01:54:10.032Z,100127.72
2023-04-16T01:57:12.727Z,100135.44
2023-04-16T02:00:16.002Z,100136.38
2023-04-16T02:03:21.520Z,100130.56
2023-04-16T02:06:24.972Z,100133.25
2023-04-16T02:09:27.557Z,100125.63
2023-04-16T02:12:31.129Z,100125.69
2023-04-16T02:15:33.769Z,100130.91
2023-04-16T02:18:36.852Z,100134.34
2023-04-16T02:21:41.805Z,100140.28
2023-04-16T02:24:44.306Z,100140.41
2023-04-16T02:27:47.253Z,100146.56
2023-04-16T02:30:51.273Z,100153.38
2023-04-16T02:33:54.640Z,100144.88
2023-04-16T02:36:58.363Z,100148.44
2023-04-16T02:40:01.373Z,100141.59
2023-04-16T02:43:04.759Z,100153.63
2023-04-16T02:46:08.685Z,100150.31
2023-04-16T02:49:11.690Z,100150.13
2023-04-16T02:52:15.648Z,100151.00
2023-04-16T02:55:18.386Z,100151.97
2023-04-16T02:58:23.992Z,100146.69
2023-04-16T03:01:28.533Z,100146.69
2023-04-16T03:04:33.130Z,100145.28
2023-04-16T03:07:35.932Z,100141.19
2023-04-16T03:10:39.025Z,100156.88
2023-04-16T03:13:41.741Z,100150.06
2023-04-16T03:16:45.704Z,100149.91
2023-04-16T03:19:48.403Z,100154.44
2023-04-16T03:22:55.087Z,100154.59
2023-04-16T03:25:57.800Z,100156.31
2023-04-16T03:29:02.149Z,100167.53
2023-04-16T03:32:06.330Z,100161.53
2023-04-16T03:35:09.840Z,100165.03
2023-04-16T03:38:12.814Z,100179.63
2023-04-16T03:41:15.889Z,100179.66
2023-04-16T03:44:18.665Z,100195.94
2023-04-16T03:47:21.777Z,100197.63
2023-04-16T03:50:24.804Z,100207.09
2023-04-16T03:53:27.624Z,100212.31
2023-04-16T03:56:30.545Z,100216.50
2023-04-16T03:59:33.610Z,100207.03
2023-04-16T04:02:36.434Z,100220.59
2023-04-16T04:05:41.407Z,100222.03
2023-04-16T04:08:44.362Z,100220.13
2023-04-16T04:11:48.769Z,100223.37
2023-04-16T04:14:51.583Z,100223.22
2023-04-16T04:17:54.570Z,100224.88
2023-04-16T04:20:57.813Z,100216.87
2023-04-16T04:24:01.049Z,100216.81
2023-04-16T04:27:04.767Z,100213.34
2023-04-16T04:30:08.449Z,100216.72
2023-04-16T04:33:11.357Z,100228.62
2023-04-16T04:36:14.336Z,100226.63
2023-04-16T04:39:17.885Z,100237.56
2023-04-16T04:42:21.551Z,100236.41
2023-04-16T04:45:25.654Z,100241.75
2023-04-16T04:48:29.035Z,100236.87
2023-04-16T04:51:32.070Z,100228.13
2023-04-16T04:54:34.971Z,100234.94
2023-04-16T04:57:37.612Z,100238.75
2023-04-16T05:00:41.068Z,100247.34
2023-04-16T05:03:44.307Z,100246.47
2023-04-16T05:06:47.317Z,100242.28
2023-04-16T05:09:49.926Z,100241.19
2023-04-16T05:12:52.867Z,100248.13
2023-04-16T05:15:55.488Z,100256.72
2023-04-16T05:18:58.463Z,100250.63
2023-04-16T05:22:02.441Z,100254.69
2023-04-16T05:25:05.759Z,100248.34
2023-04-16T05:28:08.291Z,100238.38
2023-04-16T05:31:11.161Z,100245.06
2023-04-16T05:34:13.782Z,100257.31
2023-04-16T05:37:16.682Z,100259.00
2023-04-16T05:40:19.433Z,100265.66
2023-04-16T05:43:22.249Z,100273.41
2023-04-16T05:46:25.136Z,100282.69
2023-04-16T05:49:28.092Z,100279.62
2023-04-16T05:52:30.796Z,100279.09
2023-04-16T05:55:34.051Z,100283.38
2023-04-16T05:58:37.112Z,100290.69
2023-04-16T06:01:40.400Z,100283.56
2023-04-16T06:04:44.006Z,100295.28
2023-04-16T06:07:46.641Z,100289.78
2023-04-16T06:10:49.699Z,100295.34
2023-04-16T06:13:52.808Z,100301.91
2023-04-16T06:16:56.371Z,100299.78
2023-04-16T06:19:59.373Z,100295.00
2023-04-16T06:23:02.299Z,100295.25
2023-04-16T06:26:05.645Z,100294.13
2023-04-16T06:29:08.805Z,100297.75
2023-04-16T06:32:12.085Z,100290.03
2023-04-16T06:35:14.934Z,100291.72
2023-04-16T06:38:17.570Z,100290.25
2023-04-16T06:41:22.761Z,100274.03
2023-04-16T06:44:25.385Z,100251.72
2023-04-16T06:47:28.392Z,-18479.59
2023-04-16T06:50:31.091Z,-18484.13
2023-04-16T06:53:34.201Z,-18488.63
2023-04-16T06:56:37.515Z,-18493.31
2023-04-16T06:59:40.689Z,-18498.78
2023-04-16T07:02:43.888Z,-18496.19
2023-04-16T07:05:46.814Z,-18499.88
2023-04-16T07:08:49.464Z,-18494.66
2023-04-16T07:11:52.623Z,-18498.63
2023-04-16T07:14:55.773Z,-18496.72
2023-04-16T07:17:58.714Z,-18494.41
2023-04-16T07:21:01.421Z,-18496.44
2023-04-16T07:24:04.824Z,-18494.66
2023-04-16T07:27:07.410Z,-18492.47
2023-04-16T07:30:10.810Z,-18498.22
2023-04-16T07:33:13.606Z,-18503.97
2023-04-16T07:36:16.457Z,-18510.69
2023-04-16T07:39:18.997Z,-18517.56
2023-04-16T07:42:22.131Z,-18521.78
2023-04-16T07:45:25.089Z,-18521.09
2023-04-16T07:48:28.677Z,-18522.06
2023-04-16T07:51:31.513Z,-18524.25
2023-04-16T07:54:34.452Z,-18521.78
2023-04-16T07:57:37.527Z,-18525.63
2023-04-16T08:00:40.489Z,-18535.22
2023-04-16T08:03:43.873Z,-18543.81
2023-04-16T08:06:46.482Z,-18552.72
2023-04-16T08:09:52.034Z,-18555.72
2023-04-16T08:12:54.597Z,-18551.63
2023-04-16T08:15:57.459Z,-18556.69
2023-04-16T08:19:01.200Z,-18557.09
2023-04-16T08:22:04.594Z,-18557.38
2023-04-16T08:25:07.801Z,-18564.34
2023-04-16T08:28:10.712Z,-18577.19
2023-04-16T08:31:13.494Z,-18588.53
2023-04-16T08:34:16.907Z,-18592.09
2023-04-16T08:37:19.612Z,-18603.97
2023-04-16T08:40:23.618Z,-18606.97
2023-04-16T08:43:26.771Z,-18602.75
2023-04-16T08:46:31.635Z,-18603.56
2023-04-16T08:49:36.949Z,-18612.31
2023-04-16T08:52:46.348Z,-18619.94
2023-04-16T08:55:52.679Z,-18623.91
2023-04-16T08:58:56.000Z,-18631.53
2023-04-16T09:01:59.635Z,-18634.41
2023-04-16T09:05:07.485Z,-18636.59
2023-04-16T09:08:10.129Z,-18647.78
2023-04-16T09:11:18.296Z,-18650.22
2023-04-16T09:14:22.090Z,-18646.97
2023-04-16T09:17:24.990Z,-18651.72
2023-04-16T09:20:27.572Z,-18652.00
2023-04-16T09:23:31.150Z,-18658.97
2023-04-16T09:26:34.453Z,-18667.28
2023-04-16T09:29:39.560Z,-18661.81
2023-04-16T09:32:42.199Z,-18654.31
2023-04-16T09:35:47.630Z,-18646.69
2023-04-16T09:38:54.974Z,-18659.22
2023-04-16T09:42:00.299Z,-18658.28
2023-04-16T09:45:05.114Z,-18643.81
2023-04-16T09:48:09.011Z,-18638.78
2023-04-16T09:51:11.573Z,-18636.72
2023-04-16T09:54:15.674Z,-18632.78
2023-04-16T09:57:22.953Z,-18631.41
2023-04-16T10:00:26.002Z,-18630.44
2023-04-16T10:03:33.762Z,-18631.13
2023-04-16T10:06:36.574Z,-18636.03
2023-04-16T10:09:40.076Z,-18633.31
2023-04-16T10:12:43.671Z,-18637.81
2023-04-16T10:15:46.861Z,-18645.19
2023-04-16T10:18:49.648Z,-18651.06
2023-04-16T10:21:55.654Z,-18657.59
2023-04-16T10:24:59.067Z,-18658.69
2023-04-16T10:28:03.117Z,-18677.22
2023-04-16T10:31:08.702Z,-18685.94
2023-04-16T10:34:12.219Z,-18693.56
2023-04-16T10:37:18.064Z,-18695.19
2023-04-16T10:40:26.148Z,-18701.88
2023-04-16T10:43:30.181Z,-18709.09
2023-04-16T10:46:34.486Z,-18698.59
2023-04-16T10:49:37.166Z,-18707.44
2023-04-16T10:52:40.303Z,-18712.06
2023-04-16T10:55:56.818Z,-18717.09
2023-04-16T10:58:59.657Z,-18727.44
2023-04-16T11:02:13.809Z,-18720.91
2023-04-16T11:05:16.819Z,-18724.03
2023-04-16T11:08:19.514Z,-18739.69
2023-04-16T11:11:23.612Z,-18739.56
2023-04-16T11:14:26.283Z,-18740.22
2023-04-16T11:17:52.716Z,-18747.03
2023-04-16T11:20:56.020Z,-18756.81
2023-04-16T11:23:59.061Z,-18760.88
2023-04-16T11:27:01.847Z,-18769.72
2023-04-16T11:30:08.351Z,-18756.13
2023-04-16T11:33:12.353Z,-18731.13
2023-04-16T11:36:15.440Z,-18710.31
2023-04-16T11:39:24.343Z,-18704.31
2023-04-16T11:42:28.615Z,-18712.63
2023-04-16T11:45:31.471Z,-18712.91
2023-04-16T11:48:53.660Z,-18716.16
2023-04-16T11:51:57.298Z,-18718.59
2023-04-16T11:55:00.471Z,-18720.78
2023-04-16T11:58:13.289Z,-18725.69
2023-04-16T12:01:21.470Z,-18731.53
2023-04-16T12:04:26.931Z,-18720.38
2023-04-16T12:07:29.787Z,-18728.66
2023-04-16T12:10:35.205Z,-18741.44
2023-04-16T12:13:40.189Z,-18749.19
2023-04-16T12:16:43.299Z,-18742.00
2023-04-16T12:19:52.936Z,-18751.25
2023-04-16T12:22:58.288Z,-18759.53
2023-04-16T12:26:10.445Z,-18761.84
2023-04-16T12:29:22.046Z,-18759.13
2023-04-16T12:32:24.665Z,-18762.50
2023-04-16T12:35:32.150Z,-18755.31
2023-04-16T12:38:34.793Z,-18755.19
2023-04-16T12:41:39.604Z,-18761.84
2023-04-16T12:44:42.220Z,-18762.09
2023-04-16T12:47:45.089Z,-18762.38
2023-04-16T12:50:48.149Z,-18750.97
2023-04-16T12:53:51.001Z,-18750.56
2023-04-16T12:56:53.562Z,-18747.69
2023-04-16T12:59:57.905Z,-18742.53
2023-04-16T13:03:00.602Z,-18744.84
2023-04-16T13:06:04.398Z,-18743.62
2023-04-16T13:09:07.423Z,-18746.06
2023-04-16T13:12:10.708Z,-18746.34
2023-04-16T13:15:13.511Z,-18746.88
2023-04-16T13:18:16.516Z,-18754.34
2023-04-16T13:21:19.069Z,-18748.25
2023-04-16T13:24:23.172Z,-18740.09
2023-04-16T13:27:25.839Z,-18733.16
2023-04-16T13:30:29.533Z,-18731.66
2023-04-16T13:33:32.333Z,-18728.53
2023-04-16T13:36:35.579Z,-18727.19
2023-04-16T13:39:38.536Z,-18717.53
2023-04-16T13:42:41.440Z,-18715.88
2023-04-16T13:45:44.097Z,-18725.94
2023-04-16T13:48:47.264Z,-18726.75
2023-04-16T13:51:49.939Z,-18725.94
2023-04-16T13:54:52.946Z,-18728.53
2023-04-16T13:57:56.392Z,-18720.09
2023-04-16T14:00:59.600Z,-18720.66
2023-04-16T14:04:06.847Z,-18726.09
2023-04-16T14:07:09.552Z,-18727.03
2023-04-16T14:10:12.489Z,-18721.88
2023-04-16T14:13:15.554Z,-18722.41
2023-04-16T14:16:18.489Z,-18722.13
2023-04-16T14:19:21.448Z,-18725.94
2023-04-16T14:22:24.392Z,-18723.78
2023-04-16T14:25:27.125Z,-18723.91
2023-04-16T14:28:30.127Z,-18713.31
2023-04-16T14:31:33.599Z,-18719.69
2023-04-16T14:34:37.071Z,-18721.72
2023-04-16T14:37:39.727Z,-18711.25
2023-04-16T14:40:42.573Z,-18711.13
2023-04-16T14:43:45.206Z,-18709.09
2023-04-16T14:46:48.311Z,-18706.91
2023-04-16T14:49:51.216Z,-18710.44
2023-04-16T14:52:54.597Z,-18714.81
2023-04-16T14:55:59.074Z,-18721.88
2023-04-16T14:59:02.035Z,-18719.97
2023-04-16T15:02:04.795Z,-18718.88
2023-04-16T15:05:10.466Z,-18722.41
2023-04-16T15:08:13.142Z,-18719.97
2023-04-16T15:11:16.046Z,-18722.69
2023-04-16T15:14:19.018Z,-18719.97
2023-04-16T15:17:21.850Z,-18720.38
2023-04-16T15:20:24.498Z,-18718.88
2023-04-16T15:23:27.738Z,-18719.56
2023-04-16T15:26:31.012Z,-18737.66
2023-04-16T15:29:34.093Z,-18753.41
2023-04-16T15:32:36.697Z,-18769.72
2023-04-16T15:35:41.275Z,-18799.84
2023-04-16T15:38:43.846Z,-18834.28
2023-04-16T15:41:59.732Z,-18909.09
2023-04-16T15:45:03.898Z,-18971.28
2023-04-16T15:48:07.124Z,-18948.91
2023-04-16T15:51:11.047Z,-18893.94
2023-04-16T15:54:13.982Z,-18845.53
2023-04-16T15:57:16.582Z,-18819.09
2023-04-16T16:00:21.315Z,-18797.81
2023-04-16T16:03:24.347Z,-18784.25
2023-04-16T16:06:27.221Z,-18768.22
2023-04-16T16:09:30.599Z,-18755.19
2023-04-16T16:12:33.407Z,-18741.88
2023-04-16T16:15:36.302Z,-18725.81
2023-04-16T16:18:39.037Z,-18713.72
2023-04-16T16:21:42.113Z,-18708.53
2023-04-16T16:24:44.670Z,-18703.63
2023-04-16T16:27:47.507Z,-18693.56
2023-04-16T16:30:51.337Z,-18690.56
2023-04-16T16:33:54.183Z,-18681.84
2023-04-16T16:36:56.870Z,-18679.69
2023-04-16T16:39:59.924Z,-18676.94
2023-04-16T16:43:02.889Z,-18676.94
2023-04-16T16:46:07.566Z,-18678.56
2023-04-16T16:49:10.887Z,-18678.56
2023-04-16T16:52:14.216Z,-18674.75
2023-04-16T16:55:18.725Z,-18676.00
2023-04-16T16:58:21.915Z,-18673.66
2023-04-16T17:01:27.664Z,-18670.69
2023-04-16T17:04:30.618Z,-18672.31
2023-04-16T17:07:33.673Z,-18668.78
2023-04-16T17:10:36.668Z,-18665.63
2023-04-16T17:13:39.419Z,-18662.09
2023-04-16T17:16:42.371Z,-18657.06
2023-04-16T17:19:45.397Z,-18652.41
2023-04-16T17:22:48.746Z,-18649.28
2023-04-16T17:25:51.419Z,-18642.88
2023-04-16T17:28:54.498Z,-18638.63
2023-04-16T17:31:57.910Z,-18634.97
2023-04-16T17:35:01.935Z,-18632.09
2023-04-16T17:38:04.598Z,-18632.38
2023-04-16T17:41:07.477Z,-18624.59
2023-04-16T17:44:11.718Z,-18619.94
2023-04-16T17:47:14.919Z,-18615.03
2023-04-16T17:50:17.660Z,-18615.56
2023-04-16T17:53:20.669Z,-18611.75
2023-04-16T17:56:23.329Z,-18608.34
2023-04-16T17:59:27.442Z,-18606.44
2023-04-16T18:02:30.398Z,-18608.75
2023-04-16T18:05:33.658Z,-18608.75
2023-04-16T18:08:37.016Z,-18606.56
2023-04-16T18:11:40.011Z,-18605.88
2023-04-16T18:14:44.835Z,-18601.25
2023-04-16T18:17:47.973Z,-18599.72
2023-04-16T18:20:52.043Z,-18598.50
2023-04-16T18:23:54.885Z,-18597.81
2023-04-16T18:26:57.543Z,-18596.88
2023-04-16T18:30:00.610Z,-18595.91
2023-04-16T18:36:11.806Z,-18593.31
2023-04-16T18:39:14.852Z,-18591.94
2023-04-16T18:42:17.748Z,-18591.00
2023-04-16T18:45:21.817Z,-18591.94
2023-04-16T18:48:25.120Z,-18592.38
2023-04-16T18:51:27.747Z,-18592.63
2023-04-16T18:54:30.610Z,-18592.09
2023-04-16T18:57:33.195Z,-18591.28
2023-04-16T19:00:37.571Z,-18592.09
2023-04-16T19:03:40.341Z,-18595.09
2023-04-16T19:06:43.936Z,-18593.59
2023-04-16T19:09:46.576Z,-18591.81
2023-04-16T19:12:49.937Z,-18590.31
2023-04-16T19:16:01.644Z,-18587.03
2023-04-16T19:19:04.911Z,-18589.63
2023-04-16T19:22:07.583Z,-18587.84
2023-04-16T19:25:10.848Z,-18587.16
2023-04-16T19:28:13.430Z,-18586.63
2023-04-16T19:31:16.486Z,-18585.38
2023-04-16T19:34:19.278Z,-18582.78
2023-04-16T19:37:22.224Z,-18579.25
2023-04-16T19:40:24.957Z,-18580.47
2023-04-16T19:43:30.713Z,-18578.97
2023-04-16T19:46:33.775Z,-18580.06
2023-04-16T19:49:36.895Z,-18578.97
2023-04-16T19:52:39.785Z,-18578.16
2023-04-16T19:55:42.980Z,-18580.34
2023-04-16T19:58:45.559Z,-18577.59
2023-04-16T20:01:48.686Z,-18576.78
2023-04-16T20:04:53.114Z,-18577.59
2023-04-16T20:07:56.636Z,-18576.91
2023-04-16T20:10:59.533Z,-18576.22
2023-04-16T20:14:02.326Z,-18576.09
2023-04-16T20:17:09.805Z,-18574.88
2023-04-16T20:20:15.604Z,-18575.81
2023-04-16T20:23:18.767Z,-18575.97
2023-04-16T20:26:23.974Z,-18575.56
2023-04-16T20:29:27.097Z,-18576.50
2023-04-16T20:32:30.140Z,-18576.22
2023-04-16T20:35:37.053Z,-18574.88
2023-04-16T20:38:42.417Z,-18576.91
2023-04-16T20:41:56.427Z,-18574.59
2023-04-16T20:45:01.066Z,-18574.31
2023-04-16T20:48:07.775Z,-18574.59
2023-04-16T20:51:10.380Z,-18577.06
2023-04-16T20:54:13.157Z,-18575.97
2023-04-16T20:57:15.843Z,-18574.47
2023-04-16T21:00:18.920Z,-18574.31
2023-04-16T21:03:21.667Z,-18573.78
2023-04-16T21:06:24.736Z,-18569.94
2023-04-16T21:09:27.354Z,-18570.50
2023-04-16T21:12:30.479Z,-18569.69
2023-04-16T21:15:34.673Z,-18566.81
2023-04-16T21:18:37.862Z,-18568.59
2023-04-16T21:21:41.861Z,-18567.22
2023-04-16T21:24:44.895Z,-18567.22
2023-04-16T21:27:47.542Z,-18568.03
2023-04-16T21:30:53.644Z,-18565.72
2023-04-16T21:33:56.380Z,-18564.47
2023-04-16T21:36:59.349Z,-18566.13
2023-04-16T21:40:02.500Z,-18567.22
2023-04-16T21:43:05.367Z,-18564.75
2023-04-16T21:46:07.882Z,-18562.97
2023-04-16T21:49:10.983Z,-18562.03
2023-04-16T21:52:19.781Z,-18560.38
2023-04-16T21:55:22.907Z,-18559.56
2023-04-16T21:58:25.890Z,-18556.53
2023-04-16T22:01:29.366Z,-18559.28
2023-04-16T22:04:39.022Z,-18556.28
2023-04-16T22:07:41.706Z,-18553.00
2023-04-16T22:10:44.592Z,-18551.34
2023-04-16T22:13:47.857Z,-18550.25
2023-04-16T22:16:52.265Z,-18549.72
2023-04-16T22:19:55.040Z,-18550.81
2023-04-16T22:22:58.718Z,-18552.31
2023-04-16T22:26:02.807Z,-18549.97
2023-04-16T22:29:06.059Z,-18549.84
2023-04-16T22:32:08.747Z,-18550.25
2023-04-16T22:35:12.595Z,-18549.56
2023-04-16T22:38:16.487Z,-18550.66
2023-04-16T22:41:19.720Z,-18552.31
2023-04-16T22:44:22.926Z,-18551.34
2023-04-16T22:47:25.810Z,-18551.63
2023-04-16T22:50:31.159Z,-18550.81
2023-04-16T22:53:35.960Z,-18549.44
2023-04-16T22:56:38.964Z,-18547.25
2023-04-16T22:59:41.907Z,-18547.53
2023-04-16T23:02:45.309Z,-18545.88
2023-04-16T23:05:49.066Z,-18544.78
2023-04-16T23:08:51.665Z,-18546.44
2023-04-16T23:11:54.725Z,-18543.56
2023-04-16T23:14:58.337Z,-18543.69
2023-04-16T23:18:01.338Z,-18543.13
2023-04-16T23:21:04.126Z,-18542.88
2023-04-16T23:24:07.729Z,-18542.88
2023-04-16T23:27:10.731Z,-18541.50
2023-04-16T23:30:13.941Z,-18541.22
2023-04-16T23:33:17.753Z,-18540.25
2023-04-16T23:36:20.811Z,-18540.69
2023-04-16T23:39:24.046Z,-18540.81
2023-04-16T23:42:26.936Z,-18540.94
2023-04-16T23:45:29.508Z,-18540.41
2023-04-16T23:48:32.463Z,-18540.00
2023-04-16T23:51:35.066Z,-18539.59
2023-04-16T23:54:38.393Z,-18538.50
2023-04-16T23:57:41.025Z,-18540.81
